x

8413320 - Bar Harbor, Me (atgm1) Weather Station

7:30 - Sun 1st Feb 2015 All times are EST. -5 hours from GMT.

  • Wind
    22mph, 29mph gusts
  • Sea Temp 32°f
  • Air Temp 10°f
  • Sea Pressure 1013.2mb
  • 8413320 - Bar Harbor, Me
  • 8413320 - Bar Harbor, Me

More Historic Weather Station data

Upgrade to MSW Pro to gain access to the past 30 days of data for over 8000 Wavebouys and Weather Stations around the globe.

Join Pro

Comparision Forecast

View Surf forecast
   
dim. 02/01 7:30 22 29 mph 1013.2mb 32f 10f
7:24 21 29 mph 1013.2mb 32f 10f
7:18 22 29 mph 1013.1mb 32f 10f
7:12 23 33 mph 1012.9mb 32f 9f
7:06 20 28 mph 1012.8mb 32f 9f
7:00 21 26 mph 1012.8mb 32f 10f
6:54 20 29 mph 1012.9mb 32f 10f
6:48 22 30 mph 1013mb 33f 10f
6:42 20 26 mph 1012.9mb 33f 10f
6:36 21 25 mph 1013mb 33f 9f
6:30 17 23 mph 1012.9mb 33f 9f
6:24 18 24 mph 1012.8mb 33f 9f
6:18 18 26 mph 1012.6mb 33f 9f
6:12 20 28 mph 1012.5mb 33f 9f
6:06 21 29 mph 1012.4mb 33f 9f
6:00 21 29 mph 1012.3mb 33f 9f
5:54 21 28 mph 1012.1mb 33f 9f
5:48 20 26 mph 1012mb 33f 9f
5:42 21 25 mph 1012mb 33f 9f
5:36 21 28 mph 1011.9mb 33f 9f
5:30 21 26 mph 1011.9mb 34f 9f
5:24 21 29 mph 1011.9mb 34f 10f
5:18 21 29 mph 1011.8mb 33f 10f
5:12 24 29 mph 1011.8mb 33f 10f
5:06 24 28 mph 1011.8mb 34f 10f
5:00 23 31 mph 1011.7mb 34f 10f
4:54 23 28 mph 1011.6mb 34f 10f
4:48 23 31 mph 1011.4mb 34f 10f
4:42 25 31 mph 1011.3mb 34f 10f
4:36 24 29 mph 1011.2mb 33f 10f
4:30 23 30 mph 1011mb 33f 9f
4:24 22 30 mph 1010.9mb 32f 9f
4:18 24 30 mph 1010.9mb 32f 9f
4:12 23 29 mph 1010.7mb 32f 9f
4:06 23 30 mph 1010.8mb 31f 9f
4:00 24 30 mph 1010.7mb 31f 9f
3:54 20 25 mph 1010.6mb 31f 9f
3:48 22 28 mph 1010.7mb 31f 8f
3:42 22 26 mph 1010.7mb 31f 8f
3:36 21 26 mph 1010.6mb 31f 8f
3:30 21 25 mph 1010.6mb 31f 8f
3:24 17 22 mph 1010.5mb 31f 8f
3:18 15 22 mph 1010.4mb 31f 7f
3:12 18 25 mph 1010.4mb 32f 8f
3:06 17 22 mph 1010.3mb 31f 8f
3:00 17 24 mph 1010.3mb 31f 7f
2:54 18 25 mph 1010.2mb 31f 8f
2:48 20 26 mph 1010.2mb 31f 8f
2:42 20 29 mph 1010.1mb 31f 8f
2:36 22 29 mph 1010mb 31f 8f
2:30 20 24 mph 1010mb 31f 9f
2:24 21 25 mph 1010mb 31f 9f
2:18 21 30 mph 1009.9mb 31f 9f
2:12 23 28 mph 1010mb 31f 8f
2:06 26 31 mph 1010.1mb 31f 8f
2:00 23 30 mph 1010mb 31f 8f
1:54 22 29 mph 1010mb 31f 8f
1:48 21 25 mph 1010mb 31f 8f
1:42 22 30 mph 1010mb 31f 7f
1:36 23 30 mph 1010mb 31f 8f
1:30 22 31 mph 1009.8mb 31f 8f
1:24 23 33 mph 1009.7mb 31f 7f
1:18 26 34 mph 1009.7mb 31f 8f
1:12 26 30 mph 1009.6mb 31f 8f
1:06 26 32 mph 1009.5mb 31f 8f
1:00 25 30 mph 1009.5mb 31f 7f
12:54 26 32 mph 1009.3mb 31f 7f
12:48 29 33 mph 1009.2mb 31f 7f
12:42 29 33 mph 1009.2mb 31f 8f
12:36 25 31 mph 1009.2mb 31f 8f
12:30 24 32 mph 1009.3mb 31f 8f
12:24 29 36 mph 1009.4mb 31f 8f
12:18 31 37 mph 1009.3mb 31f 8f
12:12 28 34 mph 1009.2mb 31f 8f
12:06 28 32 mph 1009.2mb 31f 8f
12:00 28 38 mph 1009mb 31f 8f
sam. 01/31 11:54 26 37 mph 1009.1mb 31f 8f
11:48 30 38 mph 1009.2mb 31f 9f
11:42 30 36 mph 1009.2mb 31f 8f
11:36 29 33 mph 1009.3mb 31f 8f
11:30 28 32 mph 1009.2mb 31f 8f
11:24 26 32 mph 1009.2mb 31f 8f
11:18 30 38 mph 1009.3mb 31f 8f
11:12 29 36 mph 1009.2mb 31f 8f
11:06 31 37 mph 1009.2mb 31f 8f
11:00 26 32 mph 1009mb 31f 8f
10:54 28 34 mph 1009mb 31f 8f
10:48 29 34 mph 1009mb 31f 8f
10:42 29 36 mph 1008.9mb 32f 8f
10:36 31 36 mph 1008.8mb 32f 8f
10:30 29 37 mph 1008.5mb - 9f
10:24 33 40 mph 1008.6mb - 9f
10:18 30 37 mph 1008.5mb 31f 9f
10:12 33 43 mph 1008.5mb 32f 9f
10:06 29 38 mph 1008.5mb 32f 9f
10:00 31 41 mph 1008.3mb 32f 10f
9:54 33 39 mph 1008.2mb 32f 10f
9:48 29 33 mph 1008mb 32f 9f
9:42 31 40 mph 1008mb 32f 10f
9:36 30 34 mph 1008.1mb 32f 10f
9:30 28 37 mph 1007.9mb 32f 10f
9:24 25 40 mph 1007.9mb 32f 10f
9:18 29 37 mph - 32f 10f
9:12 28 38 mph - 32f 11f
9:06 26 37 mph - 32f 11f
9:00 36 40 mph 1007.5mb 32f 11f
8:54 29 34 mph 1007.3mb 32f 11f
8:48 30 34 mph 1007.1mb 32f 11f
8:42 29 41 mph 1007mb 32f 12f
8:36 34 43 mph 1007mb 32f 12f
8:30 32 39 mph 1006.8mb 32f 12f
8:24 32 40 mph 1006.9mb 32f 12f
8:18 26 43 mph 1006.8mb 32f 12f
8:12 34 43 mph 1006.7mb 32f 12f
8:06 30 38 mph 1006.7mb 31f 12f
8:00 30 37 mph 1006.8mb 32f 13f
7:54 32 40 mph 1006.7mb 32f 12f
7:48 31 40 mph 1006.6mb 32f 12f
7:42 31 37 mph 1006.6mb 32f 13f
7:36 26 36 mph 1006.4mb 32f 13f
7:30 29 36 mph 1006.5mb 32f 13f
7:24 26 36 mph 1006.4mb 32f 13f
7:18 26 32 mph 1006.3mb 32f 14f
7:12 23 36 mph 1006.2mb 32f 13f
7:06 25 37 mph 1006.2mb 32f 14f
7:00 29 34 mph 1006.1mb 32f 14f
6:54 26 33 mph 1006mb 32f 15f
6:48 26 36 mph 1005.9mb 31f 15f
6:42 28 34 mph 1005.7mb 31f 15f
6:36 26 34 mph 1005.7mb 32f 15f
6:00 29 33 mph 1005.1mb 33f 15f
5:54 29 36 mph 1005mb 33f 15f
5:48 28 34 mph 1004.8mb 33f 15f
5:42 28 34 mph 1004.7mb 33f 15f
5:36 26 37 mph 1004.7mb 34f 15f
5:30 26 34 mph 1004.6mb 34f 15f
5:24 30 38 mph 1004.5mb 34f 15f
5:18 30 37 mph 1004.3mb 34f 15f
5:12 31 39 mph 1004.2mb 34f 15f
5:06 31 36 mph 1004.1mb 34f 16f
5:00 29 37 mph 1004mb 34f 16f
4:54 31 36 mph 1003.9mb 34f 15f
4:48 31 36 mph 1003.9mb 34f 16f
4:42 29 36 mph 1003.6mb 33f 15f
4:36 29 37 mph 1003.6mb 33f 16f
4:30 30 33 mph 1003.5mb 33f 15f
4:24 28 34 mph 1003.5mb 33f 16f
4:18 26 37 mph 1003.3mb 33f 16f
4:12 29 36 mph 1003.3mb 33f 16f
4:06 30 34 mph 1003.2mb 33f 16f
4:00 29 36 mph 1003.2mb 33f 16f
3:54 28 34 mph 1003.1mb 33f 17f
3:48 29 37 mph 1003mb 33f 17f
3:42 25 32 mph 1002.9mb 33f 17f
3:36 29 36 mph 1002.8mb 33f 17f
3:30 28 33 mph 1002.7mb 33f 17f
3:24 24 32 mph 1002.6mb 33f 17f
3:18 28 37 mph 1002.6mb 33f 17f
3:12 26 34 mph 1002.6mb 33f 17f
3:06 29 37 mph 1002.4mb 33f 17f
3:00 26 37 mph 1002.3mb 32f 17f
2:54 26 33 mph 1002.3mb 32f 17f
2:48 26 34 mph 1002.3mb 32f 17f
2:42 31 37 mph 1002.2mb 32f 17f
2:30 28 39 mph 1002.1mb 33f 17f
2:24 30 36 mph 1002mb 33f 17f
2:18 29 36 mph 1002mb 33f 17f
2:12 25 36 mph 1001.8mb 33f 17f
2:06 26 32 mph 1001.8mb 33f 17f
2:00 29 36 mph 1001.6mb 33f 17f
1:54 30 43 mph 1001.5mb 33f 17f
1:48 31 43 mph 1001.5mb 33f 18f
1:42 32 45 mph 1001.5mb 33f 18f
1:36 33 41 mph 1001.3mb 33f 18f
1:30 33 45 mph 1001.2mb 33f 17f
1:24 34 44 mph 1001.1mb 33f 17f
1:18 33 45 mph 1001.1mb 33f 17f
1:12 34 40 mph 1001.2mb 33f 17f
1:06 32 44 mph 1001mb 33f 17f
1:00 31 40 mph 1001.1mb 33f 17f
12:54 31 44 mph 1000.9mb 33f 17f
12:48 32 40 mph 1000.9mb 33f 17f
12:42 33 41 mph 1000.8mb 33f 17f
12:36 33 44 mph 1000.9mb 33f 17f
12:30 32 41 mph 1000.7mb 33f 17f
12:24 30 44 mph 1000.7mb 33f 18f
12:18 32 39 mph 1000.8mb 33f 18f
12:12 31 40 mph 1000.7mb 33f 18f
12:06 30 39 mph 1000.8mb 33f 18f
12:00 32 40 mph 1000.9mb 33f 17f
11:54 30 37 mph 1000.8mb 33f 18f
11:48 31 39 mph 1000.8mb 33f 18f
11:42 30 41 mph 1000.7mb 33f 18f
11:36 32 41 mph 1000.7mb 33f 18f
11:30 30 41 mph 1000.5mb 33f 18f
11:24 32 39 mph 1000.6mb 33f 18f
11:18 31 39 mph 1000.7mb 33f 18f
11:12 30 43 mph 1000.8mb 33f 19f
11:06 29 40 mph 1000.7mb 33f 18f
11:00 31 40 mph 1000.8mb 33f 18f
10:54 30 41 mph 1001mb 33f 18f
10:48 31 43 mph 1001mb 33f 18f
10:42 31 39 mph 1001.1mb 34f 19f
10:36 33 44 mph 1001.2mb 33f 18f
10:30 29 38 mph 1001.2mb 33f 18f
10:24 31 40 mph 1001.3mb 33f 19f
10:18 31 38 mph 1001.4mb 34f 19f
10:12 29 38 mph 1001.6mb 34f 19f
10:06 28 36 mph 1001.7mb 34f 19f
10:00 26 36 mph 1001.8mb 34f 19f
9:54 30 40 mph 1001.7mb 34f 19f
9:48 28 38 mph 1001.7mb 34f 19f
9:42 30 39 mph 1001.9mb 34f 19f
9:36 28 37 mph 1001.7mb 34f 19f
9:30 26 37 mph 1001.4mb 34f 19f
9:24 31 38 mph 1001.1mb 34f 19f
9:18 31 43 mph 1001.1mb 34f 19f
9:12 29 34 mph 1001.1mb 34f 20f
9:06 24 34 mph 1001mb 34f 20f
9:00 26 37 mph 1001.3mb 34f 20f
8:54 24 39 mph 1001.1mb 34f 20f
8:48 26 37 mph 1001.4mb 34f 20f
8:42 26 43 mph 1001.6mb 34f 20f
8:36 28 45 mph 1001.4mb 34f 20f
8:30 26 39 mph 1001.5mb 34f 20f
8:24 32 44 mph 1001.1mb 34f 20f
8:18 29 40 mph 1000.6mb 34f 20f
8:12 29 39 mph 1000.6mb 34f 20f
8:06 29 38 mph 1000.5mb 34f 20f
8:00 28 37 mph 1001.2mb 33f 20f
7:54 23 36 mph 1001.5mb 33f 20f
7:48 23 33 mph 1001.4mb 33f 21f
7:42 25 34 mph 1001.2mb 33f 21f
7:36 22 33 mph 1001.2mb 34f 21f
7:30 25 33 mph 1000.9mb 33f 21f
7:24 26 36 mph 1000.6mb 34f 21f
7:18 25 34 mph 1000.7mb 34f 21f
7:12 23 38 mph 1001mb 33f 21f
7:06 22 34 mph 1001.2mb 33f 22f
7:00 21 37 mph 1001.4mb 33f 22f
6:54 21 31 mph 1001.1mb 33f 22f
6:48 24 33 mph 1001mb 33f 22f
6:42 23 36 mph 1000.9mb 34f 22f
6:36 24 32 mph 1000.8mb 34f 22f
6:30 21 31 mph 1000.8mb 35f 22f
6:24 18 28 mph 1000.9mb 34f 23f
6:18 18 33 mph 1000.8mb 33f 23f
6:12 22 33 mph 1000.7mb 33f 23f
6:06 23 37 mph 1000.5mb 34f 23f
6:00 23 30 mph 1000.3mb 33f 23f
5:54 22 30 mph 1000.1mb 34f 24f
5:48 17 31 mph 1000.1mb 34f 24f
5:42 23 34 mph 1000.2mb 35f 24f
5:36 20 30 mph 1000.1mb 36f 24f
5:30 17 32 mph 1000.4mb 36f 25f
5:24 17 24 mph 1000.5mb 36f 26f
5:18 15 28 mph 1000.3mb 36f 26f
5:12 14 24 mph 1000.5mb 36f 26f
5:06 15 24 mph 1000.7mb 35f 26f
5:00 16 28 mph 1001mb 35f 26f
4:54 14 22 mph 1001mb 35f 26f
4:48 15 24 mph 1001.1mb 35f 26f
4:42 14 23 mph 1001.2mb 35f 26f
4:36 16 25 mph 1000.6mb 35f 26f
4:30 17 26 mph 1000.6mb 35f 26f
4:24 17 25 mph 1000.7mb 35f 26f
4:18 16 22 mph 1000.6mb 35f 26f
4:12 14 30 mph 1000.6mb 35f 26f
4:06 17 25 mph 1000.8mb 35f 26f
4:00 15 28 mph 1000.9mb 35f 26f
3:54 15 25 mph 1001mb 35f 26f
3:48 17 29 mph 1000.6mb 35f 26f
3:42 14 23 mph 1000.5mb 35f 26f
3:36 15 24 mph 1000.7mb 35f 26f
3:30 15 25 mph 1001.1mb 35f 26f
3:24 15 23 mph 1001.2mb 35f 26f
3:18 11 24 mph 1001.2mb 35f 26f
3:12 16 25 mph 1001.1mb 35f 26f
3:06 13 23 mph 1001.1mb 35f 26f
3:00 16 26 mph 1001.1mb 35f 26f
2:54 11 22 mph 1001.3mb 35f 27f
2:48 14 25 mph 1001.2mb 35f 27f
2:42 13 24 mph 1001.3mb 35f 27f
2:36 13 17 mph 1001.4mb 35f 27f
2:30 15 23 mph 1001.5mb 35f 28f
2:24 16 23 mph 1001.9mb 35f 27f
2:18 14 24 mph 1001.8mb 35f 28f
2:12 13 22 mph 1002mb 35f 28f
2:06 9 17 mph 1002.1mb 35f 29f
2:00 9 23 mph 1002mb 35f 28f
1:54 11 21 mph 1001.9mb 35f 29f
1:48 10 16 mph 1002.1mb 35f 29f
1:42 10 16 mph 1002mb 35f 29f
1:36 9 17 mph 1002mb 35f 30f
1:30 10 20 mph 1001.9mb 35f 29f
1:24 13 21 mph 1001.9mb 35f 30f
1:18 11 20 mph 1001.9mb 35f 30f
1:12 13 17 mph 1001.9mb 35f 30f
1:06 10 16 mph 1001.9mb 35f 30f
1:00 11 17 mph 1002mb 35f 30f
12:54 8 16 mph 1002mb 35f 30f
12:48 14 20 mph 1001.8mb 35f 30f
12:42 14 18 mph 1001.9mb 35f 30f
12:36 13 20 mph 1001.9mb 35f 30f
12:30 15 20 mph 1001.9mb 35f 30f
12:24 15 21 mph 1001.9mb 35f 31f
12:18 14 18 mph 1002.1mb 35f 31f
12:12 16 20 mph 1002.1mb 35f 31f
12:06 14 20 mph 1002.1mb 35f 31f
12:00 17 20 mph 1002.2mb 35f 31f
ven. 01/30 11:54 15 18 mph 1002mb 35f 31f
11:48 15 18 mph 1002.1mb 35f 31f
11:42 16 18 mph 1002.2mb 35f 31f
11:36 15 17 mph 1002.4mb 35f 31f
11:30 14 18 mph 1002.4mb 35f 32f
11:24 13 17 mph 1002.4mb 35f 32f
11:18 13 15 mph 1002.5mb 35f 32f
11:12 11 15 mph 1002.8mb 35f 32f
11:06 10 14 mph 1002.8mb 35f 32f
11:00 11 16 mph 1002.7mb 35f 32f
10:54 10 14 mph 1002.7mb 35f 32f
10:48 11 16 mph 1002.7mb 35f 32f
10:42 13 15 mph 1002.9mb 35f 33f
10:36 13 17 mph 1003mb 35f 33f
10:30 11 15 mph 1003.1mb 35f 33f
10:24 11 13 mph 1003.1mb 35f 33f
10:18 10 15 mph 1003.3mb 35f -
10:12 8 13 mph 1003.3mb 35f -
10:06 9 13 mph 1003.4mb 35f -
10:00 10 15 mph 1003.5mb 35f 33f
9:54 13 16 mph 1003.5mb 35f 33f
9:48 14 17 mph 1003.5mb 35f 33f
9:42 13 17 mph 1003.6mb 35f 33f
9:36 10 13 mph 1003.7mb 35f 33f
9:30 11 14 mph 1003.8mb 35f 33f
9:24 10 13 mph 1003.7mb 35f 33f
9:18 11 17 mph 1003.8mb 35f 34f
9:12 13 16 mph 1003.8mb 35f 34f
9:06 14 16 mph 1003.8mb 35f 34f
9:00 13 17 mph 1003.8mb 35f 34f
8:54 14 18 mph 1003.7mb 36f 34f
8:48 14 17 mph 1003.7mb 36f 35f
8:42 15 18 mph 1003.7mb 36f 35f
8:36 16 20 mph 1003.7mb 36f 35f
8:30 16 21 mph 1004mb 36f 35f
8:24 16 20 mph 1004mb 36f 35f
8:18 17 21 mph 1004.2mb 36f 35f
8:12 17 22 mph 1004.2mb 36f 35f
8:06 16 21 mph 1003.9mb 36f 35f
8:00 17 22 mph 1004.2mb 36f 35f
7:54 17 22 mph 1004.3mb 36f 36f
7:48 16 22 mph 1004.4mb 36f 36f
7:42 17 20 mph 1004.4mb 36f 36f
7:36 17 23 mph 1004.5mb 36f 36f
7:30 18 22 mph 1004.5mb 36f 36f
7:24 18 23 mph 1004.5mb 36f 37f
7:18 20 22 mph 1004.5mb 36f 37f
7:12 21 24 mph 1004.6mb 36f 37f
7:06 18 24 mph 1004.7mb 36f 37f
7:00 18 21 mph 1004.7mb 36f 37f
6:54 16 20 mph 1004.6mb 36f 37f
6:48 16 20 mph 1004.7mb 36f 37f
6:42 17 21 mph 1004.9mb 36f 38f
6:36 17 21 mph 1004.9mb 37f 38f
6:30 17 23 mph 1005mb 37f 37f
6:24 17 23 mph 1005mb 37f 38f
6:18 17 21 mph 1005.1mb 37f 38f
6:12 16 20 mph 1005.3mb 37f 38f
6:06 16 21 mph 1005.3mb 37f 37f
6:00 15 18 mph 1005.4mb 36f 38f
5:54 14 17 mph 1005.5mb 36f 37f
5:48 13 17 mph 1005.6mb 36f 37f
5:42 11 15 mph 1005.6mb 36f 37f
5:36 7 10 mph 1005.7mb 36f 37f
5:30 7 14 mph 1005.7mb 36f 37f
5:24 7 16 mph 1005.6mb 36f 37f
5:18 11 17 mph 1005.3mb 36f 37f
5:12 13 16 mph 1005.3mb 36f 37f
5:06 8 14 mph 1005.6mb 36f 37f
5:00 5 11 mph 1005.8mb 36f 37f
4:54 6 11 mph 1006mb 36f 37f
4:48 8 13 mph 1006mb 36f 37f
4:42 8 10 mph 1006mb 36f 37f
4:36 5 7 mph 1006mb 35f 37f
4:30 5 7 mph 1006mb 35f 37f
4:24 5 9 mph 1006.1mb 35f 37f
4:18 7 13 mph 1006.1mb 35f 37f
4:12 5 8 mph 1006.2mb 35f 36f
4:06 6 10 mph 1006.3mb 35f 36f
4:00 7 11 mph 1006.4mb 35f 35f
3:54 6 9 mph 1006.4mb 35f 35f
3:48 6 10 mph 1006.5mb 35f 35f
3:42 5 10 mph 1006.6mb 35f 35f
3:36 6 9 mph 1006.6mb 35f 35f
3:30 7 13 mph 1006.7mb 35f 36f
3:24 6 10 mph 1006.7mb 35f 36f
3:18 5 14 mph 1006.8mb 35f 36f
3:12 8 11 mph 1006.8mb 35f 36f
3:06 9 14 mph 1006.8mb 35f 36f
3:00 10 15 mph 1006.8mb 35f 36f
2:54 14 18 mph 1006.9mb 35f 36f
2:48 14 17 mph 1006.9mb 35f 36f
2:42 11 16 mph 1007mb 35f 36f
2:36 11 16 mph 1007mb 35f 36f
2:30 9 15 mph 1007.1mb 35f 36f
2:24 8 11 mph 1007.2mb 35f 35f
2:18 7 14 mph 1007.2mb 35f 35f
2:12 7 13 mph 1007.3mb 35f 35f
2:06 9 15 mph 1007.4mb 35f 35f
2:00 7 15 mph 1007.5mb 35f 35f
1:54 8 14 mph 1007.4mb 35f 35f
1:48 8 14 mph 1007.5mb 35f 35f
1:42 6 14 mph 1007.5mb 35f 35f
1:36 7 11 mph 1007.6mb 35f 35f
1:30 10 16 mph 1007.5mb 35f 35f
1:24 9 15 mph 1007.5mb 35f 36f
1:18 6 14 mph 1007.5mb 35f 36f
1:12 7 13 mph 1007.5mb 35f 36f
1:06 8 14 mph 1007.7mb 35f 36f
1:00 6 14 mph 1007.8mb 35f 36f
12:54 8 14 mph 1007.8mb 35f 36f
12:48 8 15 mph 1007.9mb 35f 36f
12:42 9 13 mph 1008mb 35f 36f
12:36 7 18 mph 1008.1mb 35f 36f
12:30 10 17 mph 1008.2mb 35f 36f
12:24 9 17 mph 1008.3mb 35f 36f
12:18 10 16 mph 1008.4mb 35f 37f
12:12 10 15 mph 1008.5mb 35f 37f
12:06 9 15 mph 1008.6mb 35f 37f
12:00 9 14 mph 1008.6mb 35f 37f
11:54 9 16 mph 1008.7mb 35f 37f
11:48 9 14 mph 1008.8mb 35f 37f
11:42 9 16 mph 1009mb 35f 37f
11:36 10 15 mph 1009.1mb 35f 37f
11:30 10 14 mph 1009.2mb 35f 37f
11:24 10 16 mph 1009.4mb 35f 37f
11:18 9 15 mph 1009.5mb 35f 37f
11:12 9 13 mph 1009.6mb 35f 37f
11:06 9 16 mph 1009.7mb 35f 37f
11:00 9 15 mph 1009.8mb 35f 37f
10:54 9 14 mph 1010mb 35f 37f
10:48 8 15 mph 1010.1mb 35f 37f
10:42 9 14 mph 1010.2mb 34f 37f
10:36 8 13 mph 1010.3mb 34f 37f
10:30 9 14 mph 1010.4mb 35f 37f
10:24 7 16 mph 1010.4mb 35f 37f
10:18 7 11 mph 1010.5mb 35f 37f
10:12 9 13 mph 1010.5mb 35f 37f
10:06 8 16 mph 1010.7mb 35f 37f
10:00 7 13 mph 1010.6mb 35f 37f
9:54 8 14 mph 1010.8mb 35f 37f
9:48 7 14 mph 1010.9mb 35f 37f
9:42 7 14 mph 1010.9mb 35f 37f
9:36 6 11 mph 1010.9mb 35f 37f
9:30 8 13 mph 1011mb 35f 37f
9:24 7 11 mph 1011.1mb 35f 37f
9:18 6 10 mph 1011.3mb 35f 37f
9:12 3 9 mph 1011.3mb 35f 37f
9:06 5 10 mph 1011.3mb 35f 37f
9:00 6 10 mph 1011.3mb 35f 37f
8:54 6 13 mph 1011.3mb 35f 37f
8:48 2 8 mph 1011.4mb 35f 37f
8:42 3 9 mph 1011.4mb 35f 37f
8:36 5 8 mph 1011.4mb 35f 36f
8:30 3 11 mph 1011.5mb 34f 36f
8:24 6 10 mph 1011.6mb 35f 36f
8:18 3 8 mph 1011.8mb 35f 36f
8:12 3 6 mph 1011.9mb 35f 36f
8:06 5 7 mph 1012mb 35f 35f
8:00 3 7 mph 1012.1mb 34f 35f
7:54 2 7 mph 1012.2mb 35f 36f
7:48 3 7 mph 1012.2mb 35f 36f
7:42 3 6 mph 1012.1mb 35f 36f
7:36 1 3 mph 1012.4mb 34f 35f
7:30 2 3 mph 1012.5mb 35f 34f
7:24 1 5 mph 1012.5mb 35f 33f
7:18 3 6 mph 1012.4mb 35f 33f
7:12 5 8 mph 1012.4mb 35f 32f
7:06 6 7 mph 1012.3mb 36f 31f
7:00 2 8 mph 1012.2mb 35f 31f
6:54 8 9 mph 1012.2mb 35f 31f
6:48 1 5 mph 1012.4mb 36f 31f
6:42 5 6 mph 1012.3mb 36f 30f
6:36 1 2 mph 1012.5mb 36f 29f
6:30  -  3 mph 1012.7mb 36f 29f
6:24 3
mph
1012.9mb 36f 28f
6:18 1 2 mph 1012.9mb 36f 28f
6:12  -  3 mph 1012.8mb 36f 28f
6:06  -  2 mph 1013mb 36f 28f
6:00 1 3 mph 1013.1mb 36f 27f
5:54 2 6 mph 1013.3mb 36f 27f
5:48 5 6 mph 1013.4mb 36f 26f
5:42 2 5 mph 1013.2mb 36f 26f
5:36 5 7 mph 1013.3mb 35f 26f
5:30 2 3 mph 1013.4mb 35f 26f
5:24  -  1 mph 1013.7mb 36f 26f
5:18  -  1 mph 1014mb 36f 26f
5:12  -  1 mph 1014.3mb 36f 26f
5:06 1 2 mph 1014.4mb 36f 26f
5:00 1 2 mph 1014.6mb 36f 26f
4:54  -  1 mph 1014.6mb 36f 26f
4:48  -  2 mph 1014.7mb 36f 26f
4:42 1 2 mph 1014.8mb 36f 26f
4:36 1 2 mph 1014.8mb 36f 26f
4:30  -  2 mph 1014.9mb 36f 26f
4:24 1 2 mph 1015mb 36f 26f
4:18  -  1 mph 1015mb 36f 25f
4:12  -  3 mph 1015.1mb 36f 25f
4:06 2 3 mph 1015.2mb 35f 25f
4:00  -  3 mph 1015.2mb 35f 25f
3:54 2 3 mph 1015.4mb 35f 25f
3:48  -  2 mph 1015.4mb 35f 25f
3:42 2 3 mph 1015.6mb 35f 25f
3:36 2 3 mph 1015.7mb 35f 25f
3:30 2 3 mph 1015.9mb 35f 25f
3:24 3
mph
1016mb 35f 24f
3:18 2 3 mph 1016.1mb 35f 24f
3:12 2 3 mph 1016.2mb 35f 24f
3:06 2 3 mph 1016.3mb 35f 24f
3:00 2 3 mph 1016.4mb 35f 24f
2:54 2 3 mph 1016.5mb 35f 24f
2:48 2
mph
1016.6mb 35f 24f
2:42 2 3 mph 1016.8mb 35f 24f
2:36 1 2 mph 1016.8mb 35f 24f
2:30  -  2 mph 1016.9mb 35f 24f
2:24 2 3 mph 1017mb 35f 24f
2:18 1
mph
1017mb 35f 24f
2:12 1 2 mph 1017mb 35f 24f
2:06 1 2 mph 1017.1mb 35f 24f
2:00 1 2 mph 1017.2mb 35f 23f
1:54 2 3 mph 1017.3mb 35f 23f
1:48 3
mph
1017.3mb 35f -
1:42 1 2 mph 1017.4mb 35f -
1:36 1 2 mph 1017.5mb 35f -
1:30 1 2 mph 1017.5mb 35f 23f
1:24 1 2 mph 1017.6mb 34f 24f
1:18 2 3 mph 1017.5mb 34f 23f
1:12 3 5 mph 1017.7mb 35f 23f
1:06 3
mph
1017.6mb 34f 23f
1:00 3
mph
1017.6mb 34f 23f
12:54 1 2 mph 1017.6mb 34f 23f
12:48 2 3 mph 1017.7mb 35f 23f
12:42 3 5 mph 1017.8mb 35f 23f
12:36 2 5 mph 1017.9mb 35f 23f
12:30 3 5 mph 1018mb 35f 23f
12:24 3 5 mph 1018mb 34f 23f
12:18 2 3 mph 1018.1mb 35f 23f
12:12 2 3 mph 1018.2mb 35f 23f
12:06 3 5 mph 1018.3mb 34f 23f
12:00 3 5 mph 1018.4mb 34f 23f
jeu. 01/29 11:54 3
mph
1018.5mb 34f 23f
11:48 2 3 mph 1018.5mb 34f 22f
11:42 2 3 mph 1018.6mb 34f 23f
11:36  -  1 mph 1018.6mb 34f 23f
11:30 1 3 mph 1018.7mb 34f 23f
11:24 3
mph
1018.8mb 34f 23f
11:18 3 5 mph 1018.8mb 34f 23f
11:12 3 5 mph 1018.9mb 34f 23f
11:06 3 5 mph 1018.9mb 34f 22f
11:00 3 5 mph 1019mb 34f 23f
10:54 3
mph
1019mb 34f 22f
10:48 3
mph
1019.1mb 34f 23f
10:42 2
mph
1019.1mb 34f 23f
10:36 2
mph
1019mb 34f 23f
10:30 2 3 mph 1019.2mb 34f 22f
10:24 2 3 mph 1019.3mb 34f 23f
10:18 2
mph
1019.3mb 34f 23f
10:12 2 3 mph 1019.4mb 34f 23f
10:06 2
mph
1019.5mb 34f 23f
10:00 1 2 mph 1019.6mb 34f 24f
9:54 2 5 mph 1019.7mb 34f 23f
9:48 3 5 mph 1019.9mb 34f 22f
9:42 1 2 mph 1019.9mb 34f 22f
9:36 1
mph
1020mb 34f 22f
9:30 1 2 mph 1020.1mb 34f 22f
9:24  -  mph 1020.2mb 34f 22f
9:18  -  mph 1020.3mb 34f 22f
9:12  -  2 mph 1020.3mb 34f 23f
9:06 2 3 mph 1020.4mb 34f 24f
8:54  -  1 mph 1020.4mb 34f 23f
8:48  -  1 mph 1020.5mb 34f 22f
8:36  -  1 mph 1020.6mb 34f 23f
8:30 1 2 mph 1020.7mb 34f 23f
8:24 2
mph
1020.7mb 34f 23f
8:18 1 2 mph 1020.9mb 34f 22f
8:12 2 3 mph 1021.1mb 34f 22f
8:06 2
mph
1021.1mb 34f 22f
8:00 2
mph
1021.2mb 34f 22f
7:54  -  1 mph 1021.2mb 34f 22f
7:48 1
mph
1021.3mb 34f 22f
7:42  -  1 mph 1021.4mb 34f 22f
7:36  -  1 mph 1021.4mb 34f 23f
7:30  -  1 mph 1021.4mb 34f 23f
7:24 1 2 mph 1021.4mb 34f 24f
7:18 1 2 mph 1021.4mb 34f 23f
7:12 2
mph
1021.4mb 34f 23f
7:06 2 3 mph 1021.4mb 34f 23f
7:00 1 2 mph 1021.4mb 34f 23f
6:54 2
mph
1021.4mb 35f 24f
6:48 1
mph
1021.5mb 35f 24f
6:42  -  2 mph 1021.5mb 35f 24f
6:36  -  2 mph 1021.6mb 35f 24f
6:30  -  mph 1021.5mb 35f 24f
6:24  -  2 mph 1021.6mb 35f 24f
6:18 1 2 mph 1021.6mb 35f 24f
6:12 2 5 mph 1021.6mb 35f 24f
6:06 3 5 mph 1021.7mb 35f 25f
6:00 2 5 mph 1021.5mb 35f 25f
5:54 3 5 mph 1021.5mb 35f 25f
5:48 5
mph
1021.6mb 35f 25f
5:42 3 6 mph 1021.7mb 35f 25f
5:36 3 5 mph 1021.8mb 35f 25f
5:30 3 5 mph 1021.9mb 35f 25f
5:24 5
mph
1021.8mb 35f 26f
5:18 3 5 mph 1021.9mb 35f 26f
5:12 3 5 mph 1021.9mb 35f 27f
5:06 5 6 mph 1021.9mb 35f 27f
5:00 3 5 mph 1021.8mb 35f 28f
4:54 3 5 mph 1021.9mb 35f 28f
4:48 5
mph
1021.9mb 35f 28f
4:42 3
mph
1021.8mb 35f 28f
4:36 3 5 mph 1021.9mb 35f 29f
4:24 3 5 mph 1022mb 34f 29f
4:18 3 5 mph 1022mb 34f 30f
4:12 2 3 mph 1021.9mb 34f 30f
4:06 2 3 mph 1021.9mb 35f 30f
4:00 2
mph
1021.9mb 34f 30f
3:54 3
mph
1021.9mb 34f 30f
3:48 1 2 mph 1021.9mb 34f 31f
3:42 2
mph
1022mb 34f 30f
3:36  -  1 mph 1022mb 34f 31f
3:30 1 2 mph 1022mb 34f 31f
3:24  -  1 mph 1022.1mb 34f 32f
3:18  -  mph 1022.2mb 34f 34f
3:12  -  2 mph 1022.3mb 34f 32f
3:06 2
mph
1022.3mb 34f 30f
3:00  -  2 mph 1022.4mb 34f 30f
2:54 2 3 mph 1022.4mb 34f 30f
2:48 3
mph
1022.5mb 34f 29f
2:42 2 3 mph 1022.5mb 34f 29f
2:36 3 5 mph 1022.6mb 34f 29f
2:30 3 5 mph 1022.6mb 34f 29f
2:24 3 5 mph 1022.6mb 34f 29f
2:18 2
mph
1022.7mb 34f 29f
2:12  -  2 mph 1022.7mb 34f 30f
2:06 1 2 mph 1022.8mb 34f 29f
2:00 2
mph
1022.8mb 33f 29f
1:54 2 3 mph 1022.9mb 33f 28f
1:48 2 3 mph 1022.9mb 33f 28f
1:30 5 6 mph 1023.2mb 33f 27f
1:24 6 7 mph 1023.3mb 33f 26f
1:18 5 6 mph 1023.3mb 33f 26f
1:12 5 6 mph 1023.3mb 33f 26f
1:06 5 6 mph 1023.4mb 33f 26f
1:00 5 6 mph 1023.4mb 33f 25f
12:54 3 6 mph 1023.5mb 33f 25f
12:48 6 7 mph 1023.6mb 33f 25f
12:42 5 6 mph 1023.7mb 33f 24f
12:36 5 6 mph 1023.8mb 33f 24f
12:30 5 6 mph 1023.8mb 33f 24f
12:24 3 6 mph 1024mb 33f 24f
12:18 3 5 mph 1024mb 33f 24f
12:12 2 3 mph 1024.1mb 33f 24f
12:06 2 3 mph 1024.3mb 32f 23f
12:00 3 5 mph 1024.4mb 32f 23f
11:54 3 6 mph 1024.5mb 33f 23f
11:48 6 7 mph 1024.5mb 33f 22f
11:42 5 6 mph 1024.6mb 33f 22f
11:36 5 6 mph 1024.6mb 32f 22f
11:30 3 6 mph 1024.8mb 32f 22f
11:24 5 6 mph 1024.9mb 32f 22f
11:18 5 6 mph 1025.1mb 32f 22f
11:12 5 6 mph 1025.3mb 32f 22f
11:06 3 6 mph 1025.5mb 32f 21f
11:00 6 8 mph 1025.7mb 32f 21f
10:54 6 7 mph 1025.8mb 32f 20f
10:48 6 8 mph 1025.9mb 32f 20f
10:00 7 8 mph 1026.1mb 32f 17f
9:54 7 8 mph 1026.1mb 32f 17f
9:48 5 7 mph 1026.1mb 32f 17f
9:42 7 8 mph 1026.1mb 32f 17f
9:36 6 9 mph 1026.1mb 32f 17f
9:30 7 10 mph 1026mb 32f 17f
9:24 9 10 mph 1026.1mb 32f 16f
9:18 9 10 mph 1026.1mb 32f 16f
9:12 10 13 mph 1026mb 32f 16f
9:06 9 13 mph 1025.9mb 32f 16f
9:00 10 14 mph 1025.8mb 32f 16f
8:54 11 14 mph 1025.8mb 32f 15f
8:48 11 14 mph 1025.8mb 32f 15f
8:42 8 13 mph 1025.8mb 32f 15f
8:36 8 9 mph 1025.8mb 33f 15f
8:30 6 11 mph 1025.7mb 33f 15f
8:24 7 10 mph 1025.6mb 33f 14f
8:18 6 9 mph 1025.7mb 32f 14f
8:12 7 9 mph 1025.7mb 32f 14f
8:06 6 8 mph 1025.6mb 32f 14f
8:00 8 9 mph 1025.6mb 32f 13f
7:54 5 8 mph 1025.6mb 32f 13f
7:48 6 9 mph 1025.4mb 32f 13f
7:42 7 9 mph 1025.3mb 33f 13f
7:36 7 9 mph 1025.2mb 33f 13f
7:30 8 11 mph 1025.2mb 32f 12f
7:24 9 11 mph 1025.3mb 32f 12f
7:18 8 10 mph 1025.2mb 32f 13f
7:12 8 13 mph 1025.3mb 32f 13f
7:06 10 13 mph 1025.3mb 32f 13f
7:00 9 11 mph 1025.2mb 32f 13f
6:54 9 13 mph 1025.2mb 32f 13f
6:48 9 13 mph 1025.1mb 32f 13f
6:42 10 13 mph 1025mb 32f 14f
6:36 9 13 mph 1025mb 32f 14f
6:30 11 13 mph 1024.9mb 32f 13f
6:24 10 13 mph 1024.8mb 32f 13f
6:18 10 13 mph 1024.8mb 32f 14f
6:12 11 14 mph 1024.7mb 32f 14f
6:06 11 14 mph 1024.5mb 32f 14f
6:00 13 14 mph 1024.4mb 32f 14f
5:54 11 13 mph 1024.3mb 32f 15f
5:48 10 13 mph 1024.3mb 32f 15f
5:42 8 10 mph 1024.1mb 31f 15f
5:36 7 9 mph 1024.1mb 32f 15f
5:30 7 10 mph 1024mb 32f 15f
5:24 8 11 mph 1024mb 32f 15f
5:18 8 10 mph 1023.9mb 32f 15f
5:12 9 10 mph 1023.9mb 32f 15f
5:06 9 11 mph 1023.9mb 33f 15f
5:00 10 11 mph 1023.9mb 34f 15f
4:54 8 9 mph 1023.9mb 34f 15f
4:48 8 9 mph 1023.9mb 34f 15f
4:42 8 10 mph 1023.9mb 34f 15f
4:36 8 11 mph 1023.9mb 34f 15f
4:30 6 8 mph 1023.9mb 34f 15f
4:24 7 10 mph 1024mb 35f 15f
4:18 7 10 mph 1023.9mb 34f 16f
4:12 6 10 mph 1023.9mb 35f 15f
4:06 8 10 mph 1023.9mb 34f 16f
4:00 8 10 mph 1024mb 34f 15f
3:54 9 10 mph 1024mb 34f 15f
3:48 8 10 mph 1023.9mb 34f 16f
3:42 8 10 mph 1023.9mb 34f 15f
3:36 9 11 mph 1023.9mb 34f 15f
3:30 10 13 mph 1024mb 34f 15f
3:24 10 14 mph 1024.1mb 34f 15f
3:18 9 14 mph 1024.1mb 34f 15f
3:12 10 14 mph 1024.2mb 34f 15f
3:06 10 13 mph 1024.1mb 34f 15f
3:00 9 11 mph 1024mb 34f 15f
2:54 7 13 mph 1023.9mb 34f 14f
2:48 8 13 mph 1023.9mb 34f 14f
2:42 7 11 mph 1023.8mb 34f 15f
2:36 7 11 mph 1023.8mb 34f 14f
2:30 7 10 mph 1023.6mb 34f 14f
2:24 6 10 mph 1023.6mb 34f 15f
2:18 7 10 mph 1023.5mb 34f 15f
2:12 8 10 mph 1023.3mb 33f 15f
2:06 7 11 mph 1023.3mb 34f 15f
2:00 8 13 mph 1023.2mb 34f 15f
1:54 8 13 mph 1023.1mb 33f 16f
1:48 8 14 mph 1023mb 34f 16f
1:42 9 13 mph 1022.9mb 34f 15f
1:36 9 13 mph 1022.8mb 34f 15f
1:30 7 11 mph 1022.7mb 33f 15f
1:24 8 13 mph 1022.6mb 33f 16f
1:18 7 10 mph 1022.4mb 33f 15f
1:12 6 10 mph 1022.3mb 33f 15f
1:06 6 9 mph 1022.2mb 33f 15f
1:00 7 11 mph 1022.1mb 33f 15f
12:54 8 11 mph 1022mb 33f 15f
12:48 7 11 mph 1021.9mb 33f 15f
12:42 10 13 mph 1021.8mb 33f 16f
12:36 13 14 mph 1021.6mb 33f 16f
12:30 9 13 mph 1021.5mb 33f 17f
12:24 9 13 mph 1021.4mb 33f 16f
12:18 9 13 mph 1021.3mb 33f 16f
12:12 9 11 mph 1021.3mb 33f 16f
12:06 8 13 mph 1021.2mb 33f 16f
12:00 7 11 mph 1021.1mb 33f 16f
mer. 01/28 11:54 9 14 mph 1021mb 33f 17f
11:48 9 11 mph 1020.9mb 33f 18f
11:42 9 13 mph 1020.8mb 33f 18f
11:36 10 14 mph 1020.7mb 32f 18f
11:30 11 15 mph 1020.7mb 32f 18f
11:24 10 15 mph 1020.6mb 32f 18f
11:18 11 15 mph 1020.5mb 32f 18f
11:12 11 14 mph 1020.6mb 32f 19f
11:06 11 15 mph 1020.5mb 33f 18f
11:00 11 14 mph 1020.4mb 32f 18f
10:54 13 14 mph 1020.4mb 32f 18f
10:48 9 11 mph 1020.2mb 32f 18f
10:42 8 10 mph 1020.1mb 33f 18f
10:36 10 14 mph 1020mb 32f 19f
10:30 11 15 mph 1019.9mb 33f 19f
10:24 11 15 mph 1019.8mb 32f 19f
10:18 11 14 mph 1019.7mb 32f 18f
10:12 9 14 mph 1019.5mb 32f 18f
10:06 10 13 mph 1019.4mb 33f 18f
10:00 8 13 mph 1019.3mb 33f 18f
9:54 8 13 mph 1019.2mb 33f 18f
9:48 10 15 mph 1019.1mb 33f 19f
9:42 13 16 mph 1019mb 33f 19f
9:36 14 15 mph 1019mb 32f 19f
9:30 11 14 mph 1018.9mb 32f 19f
9:24 9 11 mph 1018.8mb 33f 18f
9:18 9 10 mph 1018.8mb 33f 18f
9:12 8 10 mph 1018.9mb 33f 18f
9:06 8 10 mph 1018.8mb 33f 18f
9:00 8 11 mph 1018.7mb - -
8:54 8 14 mph 1018.6mb - -
8:48 10 14 mph 1018.6mb 32f 19f
8:42 11 16 mph 1018.5mb 33f 19f
8:36 13 14 mph 1018.5mb 33f 19f
8:30 13 15 mph 1018.4mb 32f 20f
8:24 11 14 mph 1018.4mb 33f 19f
8:18 11 14 mph 1018.4mb - 19f
8:12 10 14 mph 1018.2mb - 19f
8:06 11 13 mph 1018.1mb - 19f
8:00 6 11 mph 1018.1mb 33f 18f
7:54 9 13 mph 1018mb 33f 19f
7:48 10 14 mph 1017.9mb 32f 19f
7:42 11 14 mph 1017.7mb 32f 19f
7:36 7 10 mph 1017.6mb 32f 19f
7:30 8 13 mph 1017.5mb 33f 19f
7:24 9 13 mph 1017.3mb 33f 20f
7:18 9 16 mph 1017.3mb 33f 19f
7:12 11 15 mph 1017.2mb 33f 20f
7:06 11 16 mph 1017.1mb 33f 20f
7:00 11 21 mph 1016.9mb 33f 20f
6:54 15 21 mph 1016.8mb 33f 20f
6:48 15 18 mph 1016.7mb 33f 20f
6:42 14 21 mph 1016.6mb 33f 20f
6:36 16 22 mph 1016.6mb 33f 20f
6:30 13 22 mph 1016.5mb 33f 20f
6:24 14 21 mph 1016.4mb 33f 20f
6:18 16 21 mph 1016.4mb 33f 20f
6:12 15 22 mph 1016.3mb 33f 19f
6:06 16 26 mph 1016.3mb 33f 19f
6:00 17 23 mph 1016.2mb 33f 19f
5:54 15 23 mph 1016mb 33f 19f
5:48 17 23 mph 1015.9mb 33f 19f
5:42 18 25 mph 1015.8mb 33f 19f
5:36 21 26 mph 1015.6mb 33f 19f
5:30 17 24 mph 1015.4mb 32f 19f
5:24 17 26 mph 1015.3mb 32f 19f
5:18 18 26 mph 1015.2mb 32f 19f
5:12 21 26 mph 1015mb 32f 19f
5:06 20 28 mph 1014.7mb 32f 19f
5:00  -  mph 1014.6mb 32f -
4:54  -  mph 1014.5mb 32f -
4:48 22 28 mph 1014.4mb 32f 18f
4:42 22 28 mph 1014.4mb 32f 19f
4:36 22 26 mph 1014.3mb 32f 19f
4:30 23 29 mph 1014.2mb 33f 18f
4:24 23 30 mph 1014.1mb 33f 18f
4:18  -  mph - 33f 19f
4:12  -  mph - 33f 18f
4:06  -  mph - 33f 19f
4:00 18 28 mph 1013.7mb 33f 19f
3:54 17 23 mph 1013.6mb 33f 19f
3:48 20 25 mph 1013.5mb 33f 19f
3:42 20 26 mph 1013.4mb 32f 19f
3:36 20 24 mph 1013.2mb 32f 19f
3:30 20 25 mph 1013.1mb 32f 19f
3:24 21 25 mph 1012.9mb 32f 19f
3:18 18 24 mph 1012.7mb 32f 19f
3:12 17 28 mph 1012.6mb 32f 19f
3:06 20 26 mph 1012.5mb 32f 19f
3:00 18 22 mph 1012.4mb 32f 19f
2:54 18 25 mph 1012.2mb 32f 19f
2:48 20 24 mph 1012.1mb 32f 19f
2:42 21 26 mph 1012mb 32f 19f
2:36 17 23 mph 1011.9mb 32f 19f
2:30 17 28 mph 1011.8mb 32f 20f
2:24 18 28 mph 1011.7mb 31f 19f
2:18 17 25 mph 1011.6mb 31f 20f
2:12 15 24 mph 1011.5mb 31f 20f
2:06 17 25 mph 1011.4mb 31f 20f
2:00 15 24 mph 1011.2mb 31f 20f
1:54 18 25 mph 1011.2mb 31f 20f
1:48 17 26 mph 1011.1mb 32f 20f
1:42 17 25 mph 1011mb 31f 20f
1:36 21 26 mph 1010.9mb 31f 20f
1:30 20 26 mph 1010.8mb 32f 20f
1:24 18 26 mph 1010.8mb 32f 20f